エカテリンブルク の空港の天気 - METARとTAF

コルツォヴォ空港 ( USSS / SVX ) - ロシア エカテリンブルク
飛行場実況気象(Metar)
観測時間11/17 22:30 YEKT (11/17 17:30 UTC)
風向・風速南西 3m/s
視程10km以上
天気現象
全天を覆う雲 雲底高度 430m
気温-2℃
湿度86%
気圧1019hPa
METARUSSS 171730Z 23003MPS 9999 OVC014 M02/M04 Q1019 R26R/150040 NOSIG RMK QFE744/0992
過去の天気等 Google飛行場航空写真 Wunderground天気予報

過去48時間のMETAR

飛行場予報(TAF)
発表時間: 11/17 21:59 YEKT (11/17 16:59 UTC)
予報対象時間: 17日23時 YEKT ~ 18日23時 YEKT
風向・風速南西 3m/s 瞬間風速 12m/s
視程3100m
天気現象弱いしゅう雪
全天の8割程度の雲 雲底高度 340m
全天の4割程度の積乱雲 雲底高度 610m
17日23時 YEKT ~ 18日11時 YEKT に一時的に
天気現象弱い氷雨
TAF USSS 171659Z 1718/1818 23003G12MPS 3100 -SHSN BKN011 SCT020CB
TEMPO 1718/1806 -FZRA